sensor_id;sensor_type;location;lat;lon;timestamp;P1;durP1;ratioP1;P2;durP2;ratioP2
29044;SDS011;16133;49.486;12.176;2022-11-20T00:01:46;46.60;;;17.52;;
29044;SDS011;16133;49.486;12.176;2022-11-20T00:04:11;51.33;;;20.10;;
29044;SDS011;16133;49.486;12.176;2022-11-20T00:06:37;54.45;;;19.75;;
29044;SDS011;16133;49.486;12.176;2022-11-20T00:09:03;48.72;;;18.15;;
29044;SDS011;16133;49.486;12.176;2022-11-20T00:11:30;46.28;;;18.40;;
29044;SDS011;16133;49.486;12.176;2022-11-20T00:13:57;54.83;;;20.50;;
29044;SDS011;16133;49.486;12.176;2022-11-20T00:16:24;45.47;;;17.40;;
29044;SDS011;16133;49.486;12.176;2022-11-20T00:18:51;48.65;;;18.35;;
29044;SDS011;16133;49.486;12.176;2022-11-20T00:21:21;45.08;;;17.70;;
29044;SDS011;16133;49.486;12.176;2022-11-20T00:23:51;46.92;;;18.30;;
29044;SDS011;16133;49.486;12.176;2022-11-20T00:26:19;47.85;;;18.45;;
29044;SDS011;16133;49.486;12.176;2022-11-20T00:28:52;41.25;;;17.35;;
29044;SDS011;16133;49.486;12.176;2022-11-20T00:31:19;44.10;;;18.00;;
29044;SDS011;16133;49.486;12.176;2022-11-20T00:33:45;44.90;;;18.08;;
29044;SDS011;16133;49.486;12.176;2022-11-20T00:36:11;49.53;;;18.15;;
29044;SDS011;16133;49.486;12.176;2022-11-20T00:38:44;43.72;;;17.77;;
29044;SDS011;16133;49.486;12.176;2022-11-20T00:41:12;49.72;;;18.92;;
29044;SDS011;16133;49.486;12.176;2022-11-20T00:43:38;47.42;;;16.67;;
29044;SDS011;16133;49.486;12.176;2022-11-20T00:46:05;48.97;;;18.00;;
29044;SDS011;16133;49.486;12.176;2022-11-20T00:48:32;43.40;;;16.75;;
29044;SDS011;16133;49.486;12.176;2022-11-20T00:50:58;49.03;;;18.20;;
29044;SDS011;16133;49.486;12.176;2022-11-20T00:53:23;41.33;;;16.60;;
29044;SDS011;16133;49.486;12.176;2022-11-20T00:55:53;50.10;;;18.98;;
29044;SDS011;16133;49.486;12.176;2022-11-20T00:58:22;42.70;;;18.38;;
29044;SDS011;16133;49.486;12.176;2022-11-20T01:00:49;44.30;;;18.15;;
29044;SDS011;16133;49.486;12.176;2022-11-20T01:03:15;50.78;;;19.30;;
29044;SDS011;16133;49.486;12.176;2022-11-20T01:05:42;45.35;;;17.00;;
29044;SDS011;16133;49.486;12.176;2022-11-20T01:08:07;46.45;;;18.05;;
29044;SDS011;16133;49.486;12.176;2022-11-20T01:10:33;42.95;;;17.23;;
29044;SDS011;16133;49.486;12.176;2022-11-20T01:12:58;46.25;;;17.90;;
29044;SDS011;16133;49.486;12.176;2022-11-20T01:15:42;48.28;;;18.48;;
29044;SDS011;16133;49.486;12.176;2022-11-20T01:18:08;44.65;;;17.08;;
29044;SDS011;16133;49.486;12.176;2022-11-20T01:20:34;42.95;;;17.58;;
29044;SDS011;16133;49.486;12.176;2022-11-20T01:23:00;44.70;;;17.13;;
29044;SDS011;16133;49.486;12.176;2022-11-20T01:25:27;53.90;;;19.25;;
29044;SDS011;16133;49.486;12.176;2022-11-20T01:27:52;45.72;;;16.80;;
29044;SDS011;16133;49.486;12.176;2022-11-20T01:30:18;43.50;;;18.08;;
29044;SDS011;16133;49.486;12.176;2022-11-20T01:32:43;45.60;;;16.75;;
29044;SDS011;16133;49.486;12.176;2022-11-20T01:35:09;48.55;;;18.65;;
29044;SDS011;16133;49.486;12.176;2022-11-20T01:37:35;44.67;;;17.38;;
29044;SDS011;16133;49.486;12.176;2022-11-20T01:40:00;44.30;;;17.73;;
29044;SDS011;16133;49.486;12.176;2022-11-20T01:42:25;49.65;;;18.65;;
29044;SDS011;16133;49.486;12.176;2022-11-20T01:48:12;42.20;;;17.63;;
29044;SDS011;16133;49.486;12.176;2022-11-20T01:50:39;44.22;;;16.77;;
29044;SDS011;16133;49.486;12.176;2022-11-20T01:53:07;43.17;;;16.67;;
29044;SDS011;16133;49.486;12.176;2022-11-20T01:55:36;41.70;;;17.88;;
29044;SDS011;16133;49.486;12.176;2022-11-20T01:58:06;45.55;;;17.80;;
29044;SDS011;16133;49.486;12.176;2022-11-20T02:00:33;44.78;;;17.65;;
29044;SDS011;16133;49.486;12.176;2022-11-20T02:02:59;49.42;;;19.52;;
29044;SDS011;16133;49.486;12.176;2022-11-20T02:05:33;52.47;;;18.73;;
29044;SDS011;16133;49.486;12.176;2022-11-20T02:08:04;41.95;;;17.85;;
29044;SDS011;16133;49.486;12.176;2022-11-20T02:10:30;49.97;;;19.67;;
29044;SDS011;16133;49.486;12.176;2022-11-20T02:12:57;48.00;;;18.88;;
29044;SDS011;16133;49.486;12.176;2022-11-20T02:15:41;47.25;;;18.63;;
29044;SDS011;16133;49.486;12.176;2022-11-20T02:18:07;55.20;;;18.85;;
29044;SDS011;16133;49.486;12.176;2022-11-20T02:20:34;51.78;;;19.52;;
29044;SDS011;16133;49.486;12.176;2022-11-20T02:23:05;51.10;;;19.33;;
29044;SDS011;16133;49.486;12.176;2022-11-20T02:25:36;55.28;;;19.77;;
29044;SDS011;16133;49.486;12.176;2022-11-20T02:28:04;47.25;;;18.52;;
29044;SDS011;16133;49.486;12.176;2022-11-20T02:30:30;46.08;;;18.25;;
29044;SDS011;16133;49.486;12.176;2022-11-20T02:32:55;48.63;;;19.88;;
29044;SDS011;16133;49.486;12.176;2022-11-20T02:37:48;50.35;;;18.98;;
29044;SDS011;16133;49.486;12.176;2022-11-20T02:40:15;43.05;;;17.35;;
29044;SDS011;16133;49.486;12.176;2022-11-20T02:42:41;50.45;;;19.42;;
29044;SDS011;16133;49.486;12.176;2022-11-20T02:45:07;49.72;;;17.73;;
29044;SDS011;16133;49.486;12.176;2022-11-20T02:47:33;52.42;;;18.77;;
29044;SDS011;16133;49.486;12.176;2022-11-20T02:49:59;52.53;;;19.10;;
29044;SDS011;16133;49.486;12.176;2022-11-20T02:52:24;47.28;;;17.02;;
29044;SDS011;16133;49.486;12.176;2022-11-20T02:54:50;51.90;;;18.95;;
29044;SDS011;16133;49.486;12.176;2022-11-20T02:57:16;46.08;;;18.33;;
29044;SDS011;16133;49.486;12.176;2022-11-20T02:59:41;51.20;;;19.17;;
29044;SDS011;16133;49.486;12.176;2022-11-20T03:02:07;52.40;;;18.85;;
29044;SDS011;16133;49.486;12.176;2022-11-20T03:04:32;43.17;;;15.63;;
29044;SDS011;16133;49.486;12.176;2022-11-20T03:06:58;46.95;;;18.45;;
29044;SDS011;16133;49.486;12.176;2022-11-20T03:09:23;44.80;;;18.33;;
29044;SDS011;16133;49.486;12.176;2022-11-20T03:11:48;45.90;;;17.73;;
29044;SDS011;16133;49.486;12.176;2022-11-20T03:14:14;47.25;;;17.92;;
29044;SDS011;16133;49.486;12.176;2022-11-20T03:16:39;45.80;;;17.35;;
29044;SDS011;16133;49.486;12.176;2022-11-20T03:19:05;47.70;;;17.75;;
29044;SDS011;16133;49.486;12.176;2022-11-20T03:21:30;50.25;;;19.52;;
29044;SDS011;16133;49.486;12.176;2022-11-20T03:23:58;44.38;;;17.80;;
29044;SDS011;16133;49.486;12.176;2022-11-20T03:26:25;47.13;;;18.00;;
29044;SDS011;16133;49.486;12.176;2022-11-20T03:28:53;47.90;;;18.88;;
29044;SDS011;16133;49.486;12.176;2022-11-20T03:31:27;50.95;;;18.08;;
29044;SDS011;16133;49.486;12.176;2022-11-20T03:33:58;44.97;;;17.20;;
29044;SDS011;16133;49.486;12.176;2022-11-20T03:36:24;45.97;;;18.23;;
29044;SDS011;16133;49.486;12.176;2022-11-20T03:38:50;52.00;;;19.13;;
29044;SDS011;16133;49.486;12.176;2022-11-20T03:41:18;54.92;;;18.63;;
29044;SDS011;16133;49.486;12.176;2022-11-20T03:43:49;49.53;;;18.40;;
29044;SDS011;16133;49.486;12.176;2022-11-20T03:46:22;50.72;;;18.10;;
29044;SDS011;16133;49.486;12.176;2022-11-20T03:48:48;51.13;;;18.98;;
29044;SDS011;16133;49.486;12.176;2022-11-20T03:53:40;49.38;;;18.02;;
29044;SDS011;16133;49.486;12.176;2022-11-20T03:56:07;47.58;;;17.80;;
29044;SDS011;16133;49.486;12.176;2022-11-20T03:58:34;44.45;;;16.40;;
29044;SDS011;16133;49.486;12.176;2022-11-20T04:01:08;43.58;;;17.63;;
29044;SDS011;16133;49.486;12.176;2022-11-20T04:03:37;47.78;;;17.67;;
29044;SDS011;16133;49.486;12.176;2022-11-20T04:06:22;43.85;;;16.80;;
29044;SDS011;16133;49.486;12.176;2022-11-20T04:08:49;45.45;;;16.60;;
29044;SDS011;16133;49.486;12.176;2022-11-20T04:13:47;50.47;;;17.20;;
29044;SDS011;16133;49.486;12.176;2022-11-20T04:16:17;49.30;;;16.08;;
29044;SDS011;16133;49.486;12.176;2022-11-20T04:18:43;43.53;;;16.80;;
29044;SDS011;16133;49.486;12.176;2022-11-20T04:21:10;52.10;;;19.23;;
29044;SDS011;16133;49.486;12.176;2022-11-20T04:23:36;45.38;;;18.50;;
29044;SDS011;16133;49.486;12.176;2022-11-20T04:26:06;48.95;;;18.17;;
29044;SDS011;16133;49.486;12.176;2022-11-20T04:28:33;47.33;;;17.13;;
29044;SDS011;16133;49.486;12.176;2022-11-20T04:31:03;46.08;;;18.85;;
29044;SDS011;16133;49.486;12.176;2022-11-20T04:33:29;46.13;;;16.77;;
29044;SDS011;16133;49.486;12.176;2022-11-20T04:35:54;51.15;;;17.15;;
29044;SDS011;16133;49.486;12.176;2022-11-20T04:38:19;45.15;;;17.85;;
29044;SDS011;16133;49.486;12.176;2022-11-20T04:40:45;45.10;;;17.88;;
29044;SDS011;16133;49.486;12.176;2022-11-20T04:43:10;46.55;;;17.63;;
29044;SDS011;16133;49.486;12.176;2022-11-20T04:45:35;47.85;;;17.92;;
29044;SDS011;16133;49.486;12.176;2022-11-20T04:48:01;45.58;;;16.83;;
29044;SDS011;16133;49.486;12.176;2022-11-20T04:50:26;49.35;;;18.13;;
29044;SDS011;16133;49.486;12.176;2022-11-20T04:52:52;48.85;;;19.13;;
29044;SDS011;16133;49.486;12.176;2022-11-20T04:55:17;42.40;;;16.85;;
29044;SDS011;16133;49.486;12.176;2022-11-20T04:57:42;40.05;;;15.60;;
29044;SDS011;16133;49.486;12.176;2022-11-20T05:00:08;44.53;;;17.30;;
29044;SDS011;16133;49.486;12.176;2022-11-20T05:02:34;44.58;;;16.50;;
29044;SDS011;16133;49.486;12.176;2022-11-20T05:04:59;46.25;;;18.48;;
29044;SDS011;16133;49.486;12.176;2022-11-20T05:07:24;47.13;;;17.58;;
29044;SDS011;16133;49.486;12.176;2022-11-20T05:09:50;41.05;;;17.02;;
29044;SDS011;16133;49.486;12.176;2022-11-20T05:12:15;42.67;;;16.05;;
29044;SDS011;16133;49.486;12.176;2022-11-20T05:14:40;45.78;;;18.05;;
29044;SDS011;16133;49.486;12.176;2022-11-20T05:17:06;45.83;;;17.20;;
29044;SDS011;16133;49.486;12.176;2022-11-20T05:19:35;48.75;;;18.17;;
29044;SDS011;16133;49.486;12.176;2022-11-20T05:22:00;48.88;;;17.70;;
29044;SDS011;16133;49.486;12.176;2022-11-20T05:24:25;47.35;;;17.17;;
29044;SDS011;16133;49.486;12.176;2022-11-20T05:26:51;50.63;;;18.63;;
29044;SDS011;16133;49.486;12.176;2022-11-20T05:29:16;46.88;;;16.73;;
29044;SDS011;16133;49.486;12.176;2022-11-20T05:31:41;47.42;;;16.00;;
29044;SDS011;16133;49.486;12.176;2022-11-20T05:34:07;46.92;;;18.05;;
29044;SDS011;16133;49.486;12.176;2022-11-20T05:36:33;44.10;;;17.38;;
29044;SDS011;16133;49.486;12.176;2022-11-20T05:38:58;45.55;;;16.52;;
29044;SDS011;16133;49.486;12.176;2022-11-20T05:41:23;51.28;;;17.67;;
29044;SDS011;16133;49.486;12.176;2022-11-20T05:43:49;50.72;;;18.70;;
29044;SDS011;16133;49.486;12.176;2022-11-20T05:46:16;46.25;;;17.48;;
29044;SDS011;16133;49.486;12.176;2022-11-20T05:48:44;43.85;;;17.95;;
29044;SDS011;16133;49.486;12.176;2022-11-20T05:51:15;45.67;;;17.40;;
29044;SDS011;16133;49.486;12.176;2022-11-20T05:53:42;56.00;;;18.58;;
29044;SDS011;16133;49.486;12.176;2022-11-20T05:56:09;46.47;;;17.15;;
29044;SDS011;16133;49.486;12.176;2022-11-20T05:58:36;50.72;;;18.55;;
29044;SDS011;16133;49.486;12.176;2022-11-20T06:01:12;47.80;;;16.92;;
29044;SDS011;16133;49.486;12.176;2022-11-20T06:03:38;47.17;;;18.23;;
29044;SDS011;16133;49.486;12.176;2022-11-20T06:06:05;51.80;;;18.42;;
29044;SDS011;16133;49.486;12.176;2022-11-20T06:08:31;44.25;;;18.23;;
29044;SDS011;16133;49.486;12.176;2022-11-20T06:10:57;49.10;;;17.42;;
29044;SDS011;16133;49.486;12.176;2022-11-20T06:13:23;44.58;;;16.85;;
29044;SDS011;16133;49.486;12.176;2022-11-20T06:15:52;41.63;;;16.58;;
29044;SDS011;16133;49.486;12.176;2022-11-20T06:18:18;47.03;;;17.10;;
29044;SDS011;16133;49.486;12.176;2022-11-20T06:20:44;42.35;;;17.20;;
29044;SDS011;16133;49.486;12.176;2022-11-20T06:23:10;48.83;;;18.17;;
29044;SDS011;16133;49.486;12.176;2022-11-20T06:25:42;45.88;;;17.70;;
29044;SDS011;16133;49.486;12.176;2022-11-20T06:28:08;43.42;;;16.00;;
29044;SDS011;16133;49.486;12.176;2022-11-20T06:30:34;44.60;;;16.75;;
29044;SDS011;16133;49.486;12.176;2022-11-20T06:33:01;43.05;;;17.13;;
29044;SDS011;16133;49.486;12.176;2022-11-20T06:35:26;43.10;;;15.98;;
29044;SDS011;16133;49.486;12.176;2022-11-20T06:37:52;47.97;;;17.52;;
29044;SDS011;16133;49.486;12.176;2022-11-20T06:40:17;42.15;;;15.88;;
29044;SDS011;16133;49.486;12.176;2022-11-20T06:42:43;45.03;;;16.70;;
29044;SDS011;16133;49.486;12.176;2022-11-20T06:45:09;43.47;;;17.67;;
29044;SDS011;16133;49.486;12.176;2022-11-20T06:47:34;45.70;;;18.50;;
29044;SDS011;16133;49.486;12.176;2022-11-20T06:50:00;41.17;;;15.82;;
29044;SDS011;16133;49.486;12.176;2022-11-20T06:52:25;45.55;;;15.60;;
29044;SDS011;16133;49.486;12.176;2022-11-20T06:54:50;43.17;;;16.92;;
29044;SDS011;16133;49.486;12.176;2022-11-20T06:57:16;41.80;;;16.55;;
29044;SDS011;16133;49.486;12.176;2022-11-20T07:02:23;44.00;;;16.10;;
29044;SDS011;16133;49.486;12.176;2022-11-20T07:04:49;44.35;;;17.42;;
29044;SDS011;16133;49.486;12.176;2022-11-20T07:07:14;49.30;;;17.85;;
29044;SDS011;16133;49.486;12.176;2022-11-20T07:09:39;44.53;;;16.42;;
29044;SDS011;16133;49.486;12.176;2022-11-20T07:12:05;45.35;;;16.98;;
29044;SDS011;16133;49.486;12.176;2022-11-20T07:14:30;46.70;;;17.00;;
29044;SDS011;16133;49.486;12.176;2022-11-20T07:16:56;43.78;;;17.10;;
29044;SDS011;16133;49.486;12.176;2022-11-20T07:19:21;47.40;;;17.13;;
29044;SDS011;16133;49.486;12.176;2022-11-20T07:21:46;44.53;;;16.33;;
29044;SDS011;16133;49.486;12.176;2022-11-20T07:24:12;48.10;;;17.10;;
29044;SDS011;16133;49.486;12.176;2022-11-20T07:26:37;47.08;;;17.92;;
29044;SDS011;16133;49.486;12.176;2022-11-20T07:29:02;49.20;;;17.88;;
29044;SDS011;16133;49.486;12.176;2022-11-20T07:31:28;48.78;;;18.30;;
29044;SDS011;16133;49.486;12.176;2022-11-20T07:33:53;44.38;;;17.65;;
29044;SDS011;16133;49.486;12.176;2022-11-20T07:36:19;52.80;;;19.52;;
29044;SDS011;16133;49.486;12.176;2022-11-20T07:38:45;54.92;;;19.23;;
29044;SDS011;16133;49.486;12.176;2022-11-20T07:41:11;44.10;;;17.23;;
29044;SDS011;16133;49.486;12.176;2022-11-20T07:43:36;54.78;;;18.58;;
29044;SDS011;16133;49.486;12.176;2022-11-20T07:46:02;56.30;;;21.40;;
29044;SDS011;16133;49.486;12.176;2022-11-20T07:48:28;50.00;;;17.83;;
29044;SDS011;16133;49.486;12.176;2022-11-20T07:50:57;57.88;;;22.33;;
29044;SDS011;16133;49.486;12.176;2022-11-20T07:53:23;53.22;;;21.67;;
29044;SDS011;16133;49.486;12.176;2022-11-20T07:55:49;58.65;;;20.75;;
29044;SDS011;16133;49.486;12.176;2022-11-20T07:58:17;51.45;;;21.33;;
29044;SDS011;16133;49.486;12.176;2022-11-20T08:00:42;54.03;;;22.25;;
29044;SDS011;16133;49.486;12.176;2022-11-20T08:03:08;72.80;;;31.08;;
29044;SDS011;16133;49.486;12.176;2022-11-20T08:05:33;66.88;;;27.05;;
29044;SDS011;16133;49.486;12.176;2022-11-20T08:07:59;65.18;;;23.83;;
29044;SDS011;16133;49.486;12.176;2022-11-20T08:10:24;56.42;;;21.75;;
29044;SDS011;16133;49.486;12.176;2022-11-20T08:12:50;60.58;;;21.42;;
29044;SDS011;16133;49.486;12.176;2022-11-20T08:15:36;56.17;;;21.88;;
29044;SDS011;16133;49.486;12.176;2022-11-20T08:20:35;61.30;;;21.38;;
29044;SDS011;16133;49.486;12.176;2022-11-20T08:23:02;51.17;;;20.73;;
29044;SDS011;16133;49.486;12.176;2022-11-20T08:25:30;56.45;;;22.02;;
29044;SDS011;16133;49.486;12.176;2022-11-20T08:27:57;57.67;;;21.05;;
29044;SDS011;16133;49.486;12.176;2022-11-20T08:30:24;63.20;;;20.63;;
29044;SDS011;16133;49.486;12.176;2022-11-20T08:32:49;58.95;;;19.60;;
29044;SDS011;16133;49.486;12.176;2022-11-20T08:35:15;59.38;;;21.83;;
29044;SDS011;16133;49.486;12.176;2022-11-20T08:37:40;61.38;;;23.52;;
29044;SDS011;16133;49.486;12.176;2022-11-20T08:40:07;65.13;;;24.75;;
29044;SDS011;16133;49.486;12.176;2022-11-20T08:42:35;56.90;;;21.95;;
29044;SDS011;16133;49.486;12.176;2022-11-20T08:45:00;54.90;;;19.58;;
29044;SDS011;16133;49.486;12.176;2022-11-20T08:47:25;54.25;;;19.17;;
29044;SDS011;16133;49.486;12.176;2022-11-20T08:49:51;52.15;;;17.90;;
29044;SDS011;16133;49.486;12.176;2022-11-20T08:52:16;47.65;;;17.73;;
29044;SDS011;16133;49.486;12.176;2022-11-20T08:54:41;56.42;;;17.40;;
29044;SDS011;16133;49.486;12.176;2022-11-20T08:57:07;55.42;;;19.70;;
29044;SDS011;16133;49.486;12.176;2022-11-20T08:59:32;62.75;;;20.20;;
29044;SDS011;16133;49.486;12.176;2022-11-20T09:01:58;63.03;;;19.90;;
29044;SDS011;16133;49.486;12.176;2022-11-20T09:04:23;42.13;;;17.00;;
29044;SDS011;16133;49.486;12.176;2022-11-20T09:06:49;47.40;;;18.38;;
29044;SDS011;16133;49.486;12.176;2022-11-20T09:09:16;43.50;;;17.35;;
29044;SDS011;16133;49.486;12.176;2022-11-20T09:11:42;40.90;;;15.90;;
29044;SDS011;16133;49.486;12.176;2022-11-20T09:14:07;40.20;;;15.93;;
29044;SDS011;16133;49.486;12.176;2022-11-20T09:16:33;40.00;;;15.40;;
29044;SDS011;16133;49.486;12.176;2022-11-20T09:18:58;40.72;;;15.88;;
29044;SDS011;16133;49.486;12.176;2022-11-20T09:21:26;44.85;;;17.20;;
29044;SDS011;16133;49.486;12.176;2022-11-20T09:23:52;40.50;;;15.70;;
29044;SDS011;16133;49.486;12.176;2022-11-20T09:26:17;35.50;;;15.88;;
29044;SDS011;16133;49.486;12.176;2022-11-20T09:28:43;33.35;;;14.85;;
29044;SDS011;16133;49.486;12.176;2022-11-20T09:31:09;34.58;;;14.05;;
29044;SDS011;16133;49.486;12.176;2022-11-20T09:33:44;29.85;;;12.20;;
29044;SDS011;16133;49.486;12.176;2022-11-20T09:36:09;28.92;;;12.05;;
29044;SDS011;16133;49.486;12.176;2022-11-20T09:38:35;26.50;;;11.48;;
29044;SDS011;16133;49.486;12.176;2022-11-20T09:41:04;26.55;;;11.18;;
29044;SDS011;16133;49.486;12.176;2022-11-20T09:54:22;30.92;;;12.45;;
29044;SDS011;16133;49.486;12.176;2022-11-20T10:02:08;27.17;;;11.80;;
29044;SDS011;16133;49.486;12.176;2022-11-20T10:04:43;29.83;;;12.95;;
29044;SDS011;16133;49.486;12.176;2022-11-20T10:07:16;28.43;;;11.93;;
29044;SDS011;16133;49.486;12.176;2022-11-20T10:09:51;21.85;;;8.68;;
29044;SDS011;16133;49.486;12.176;2022-11-20T10:17:59;44.75;;;18.55;;
29044;SDS011;16133;49.486;12.176;2022-11-20T10:23:22;35.50;;;15.05;;
29044;SDS011;16133;49.486;12.176;2022-11-20T10:28:34;36.97;;;16.00;;
29044;SDS011;16133;49.486;12.176;2022-11-20T10:31:31;37.58;;;16.20;;
29044;SDS011;16133;49.486;12.176;2022-11-20T10:34:22;38.17;;;15.25;;
29044;SDS011;16133;49.486;12.176;2022-11-20T10:36:57;33.53;;;14.98;;
29044;SDS011;16133;49.486;12.176;2022-11-20T10:39:31;34.10;;;15.15;;
29044;SDS011;16133;49.486;12.176;2022-11-20T10:41:57;31.23;;;13.50;;
29044;SDS011;16133;49.486;12.176;2022-11-20T10:44:27;33.40;;;14.20;;
29044;SDS011;16133;49.486;12.176;2022-11-20T10:47:14;30.13;;;13.88;;
29044;SDS011;16133;49.486;12.176;2022-11-20T10:49:41;27.92;;;13.50;;
29044;SDS011;16133;49.486;12.176;2022-11-20T10:57:47;49.60;;;22.13;;
29044;SDS011;16133;49.486;12.176;2022-11-20T11:00:16;47.10;;;18.48;;
29044;SDS011;16133;49.486;12.176;2022-11-20T11:02:46;27.33;;;13.38;;
29044;SDS011;16133;49.486;12.176;2022-11-20T11:07:45;24.48;;;10.93;;
29044;SDS011;16133;49.486;12.176;2022-11-20T11:13:06;25.63;;;10.85;;
29044;SDS011;16133;49.486;12.176;2022-11-20T11:15:39;23.52;;;10.52;;
29044;SDS011;16133;49.486;12.176;2022-11-20T11:20:35;19.52;;;9.60;;
29044;SDS011;16133;49.486;12.176;2022-11-20T11:23:01;17.48;;;8.93;;
29044;SDS011;16133;49.486;12.176;2022-11-20T11:25:55;18.95;;;8.75;;
29044;SDS011;16133;49.486;12.176;2022-11-20T11:28:22;18.13;;;8.25;;
29044;SDS011;16133;49.486;12.176;2022-11-20T11:30:51;18.70;;;8.77;;
29044;SDS011;16133;49.486;12.176;2022-11-20T11:33:32;20.75;;;9.50;;
29044;SDS011;16133;49.486;12.176;2022-11-20T11:36:04;18.10;;;9.02;;
29044;SDS011;16133;49.486;12.176;2022-11-20T11:38:43;21.85;;;10.88;;
29044;SDS011;16133;49.486;12.176;2022-11-20T11:41:12;20.02;;;9.27;;
29044;SDS011;16133;49.486;12.176;2022-11-20T11:43:52;18.17;;;8.52;;
29044;SDS011;16133;49.486;12.176;2022-11-20T11:46:39;14.95;;;6.90;;
29044;SDS011;16133;49.486;12.176;2022-11-20T12:00:09;18.58;;;9.63;;
29044;SDS011;16133;49.486;12.176;2022-11-20T12:05:26;22.38;;;10.40;;
29044;SDS011;16133;49.486;12.176;2022-11-20T12:15:52;25.70;;;11.00;;
29044;SDS011;16133;49.486;12.176;2022-11-20T12:18:18;22.85;;;10.48;;
29044;SDS011;16133;49.486;12.176;2022-11-20T12:20:59;21.00;;;9.88;;
29044;SDS011;16133;49.486;12.176;2022-11-20T12:37:16;28.73;;;12.63;;
29044;SDS011;16133;49.486;12.176;2022-11-20T12:39:58;27.52;;;12.90;;
29044;SDS011;16133;49.486;12.176;2022-11-20T13:08:00;47.80;;;20.05;;
29044;SDS011;16133;49.486;12.176;2022-11-20T13:10:35;42.00;;;17.65;;
29044;SDS011;16133;49.486;12.176;2022-11-20T13:16:06;37.33;;;16.65;;
29044;SDS011;16133;49.486;12.176;2022-11-20T13:18:40;30.05;;;14.65;;
29044;SDS011;16133;49.486;12.176;2022-11-20T13:26:45;26.42;;;13.75;;
29044;SDS011;16133;49.486;12.176;2022-11-20T13:29:12;28.35;;;11.85;;
29044;SDS011;16133;49.486;12.176;2022-11-20T13:31:43;27.00;;;11.27;;
29044;SDS011;16133;49.486;12.176;2022-11-20T13:34:22;23.05;;;11.38;;
29044;SDS011;16133;49.486;12.176;2022-11-20T13:36:51;24.85;;;11.90;;
29044;SDS011;16133;49.486;12.176;2022-11-20T13:39:25;23.27;;;11.68;;
29044;SDS011;16133;49.486;12.176;2022-11-20T13:42:01;19.65;;;10.65;;
29044;SDS011;16133;49.486;12.176;2022-11-20T13:44:39;17.60;;;9.55;;
29044;SDS011;16133;49.486;12.176;2022-11-20T13:47:22;23.80;;;11.85;;
29044;SDS011;16133;49.486;12.176;2022-11-20T13:49:49;16.85;;;8.93;;
29044;SDS011;16133;49.486;12.176;2022-11-20T13:52:33;18.35;;;9.18;;
29044;SDS011;16133;49.486;12.176;2022-11-20T14:00:43;17.88;;;8.60;;
29044;SDS011;16133;49.486;12.176;2022-11-20T14:03:18;15.35;;;8.20;;
29044;SDS011;16133;49.486;12.176;2022-11-20T14:05:54;17.50;;;8.68;;
29044;SDS011;16133;49.486;12.176;2022-11-20T14:08:33;13.68;;;8.02;;
29044;SDS011;16133;49.486;12.176;2022-11-20T14:11:14;19.05;;;8.88;;
29044;SDS011;16133;49.486;12.176;2022-11-20T14:13:51;15.30;;;8.52;;
29044;SDS011;16133;49.486;12.176;2022-11-20T14:16:34;14.93;;;8.60;;
29044;SDS011;16133;49.486;12.176;2022-11-20T14:21:44;15.65;;;7.22;;
29044;SDS011;16133;49.486;12.176;2022-11-20T14:24:11;13.57;;;7.03;;
29044;SDS011;16133;49.486;12.176;2022-11-20T14:26:41;13.20;;;6.90;;
29044;SDS011;16133;49.486;12.176;2022-11-20T14:29:12;13.60;;;6.63;;
29044;SDS011;16133;49.486;12.176;2022-11-20T14:31:39;14.98;;;7.20;;
29044;SDS011;16133;49.486;12.176;2022-11-20T14:34:10;15.82;;;8.05;;
29044;SDS011;16133;49.486;12.176;2022-11-20T14:36:42;21.60;;;8.95;;
29044;SDS011;16133;49.486;12.176;2022-11-20T14:39:10;18.67;;;8.93;;
29044;SDS011;16133;49.486;12.176;2022-11-20T14:41:37;16.85;;;9.43;;
29044;SDS011;16133;49.486;12.176;2022-11-20T14:44:03;17.40;;;8.57;;
29044;SDS011;16133;49.486;12.176;2022-11-20T14:46:30;16.75;;;8.80;;
29044;SDS011;16133;49.486;12.176;2022-11-20T14:48:57;21.83;;;9.93;;
29044;SDS011;16133;49.486;12.176;2022-11-20T14:51:30;23.08;;;10.60;;
29044;SDS011;16133;49.486;12.176;2022-11-20T14:56:41;25.52;;;13.35;;
29044;SDS011;16133;49.486;12.176;2022-11-20T14:59:07;26.00;;;14.43;;
29044;SDS011;16133;49.486;12.176;2022-11-20T15:01:33;28.08;;;13.82;;
29044;SDS011;16133;49.486;12.176;2022-11-20T15:04:00;32.75;;;14.88;;
29044;SDS011;16133;49.486;12.176;2022-11-20T15:06:34;35.97;;;16.10;;
29044;SDS011;16133;49.486;12.176;2022-11-20T15:09:02;35.28;;;15.40;;
29044;SDS011;16133;49.486;12.176;2022-11-20T15:11:30;22.98;;;12.30;;
29044;SDS011;16133;49.486;12.176;2022-11-20T15:14:00;19.27;;;10.45;;
29044;SDS011;16133;49.486;12.176;2022-11-20T15:16:28;19.05;;;9.70;;
29044;SDS011;16133;49.486;12.176;2022-11-20T15:18:53;16.73;;;8.68;;
29044;SDS011;16133;49.486;12.176;2022-11-20T15:21:20;17.48;;;8.88;;
29044;SDS011;16133;49.486;12.176;2022-11-20T15:23:48;15.77;;;8.85;;
29044;SDS011;16133;49.486;12.176;2022-11-20T15:26:22;16.98;;;9.02;;
29044;SDS011;16133;49.486;12.176;2022-11-20T15:28:50;19.27;;;9.20;;
29044;SDS011;16133;49.486;12.176;2022-11-20T15:31:21;16.85;;;9.20;;
29044;SDS011;16133;49.486;12.176;2022-11-20T15:33:47;20.00;;;10.25;;
29044;SDS011;16133;49.486;12.176;2022-11-20T15:36:13;24.48;;;12.48;;
29044;SDS011;16133;49.486;12.176;2022-11-20T15:38:39;26.20;;;13.15;;
29044;SDS011;16133;49.486;12.176;2022-11-20T15:41:04;21.23;;;13.07;;
29044;SDS011;16133;49.486;12.176;2022-11-20T15:43:30;23.33;;;13.02;;
29044;SDS011;16133;49.486;12.176;2022-11-20T15:46:00;24.33;;;12.50;;
29044;SDS011;16133;49.486;12.176;2022-11-20T15:48:48;23.52;;;11.30;;
29044;SDS011;16133;49.486;12.176;2022-11-20T15:51:33;23.08;;;10.98;;
29044;SDS011;16133;49.486;12.176;2022-11-20T15:56:26;18.23;;;8.82;;
29044;SDS011;16133;49.486;12.176;2022-11-20T15:58:52;18.13;;;10.30;;
29044;SDS011;16133;49.486;12.176;2022-11-20T16:01:18;19.75;;;9.63;;
29044;SDS011;16133;49.486;12.176;2022-11-20T16:03:45;19.95;;;10.50;;
29044;SDS011;16133;49.486;12.176;2022-11-20T16:06:11;23.25;;;11.63;;
29044;SDS011;16133;49.486;12.176;2022-11-20T16:08:36;20.83;;;9.57;;
29044;SDS011;16133;49.486;12.176;2022-11-20T16:11:02;14.98;;;9.00;;
29044;SDS011;16133;49.486;12.176;2022-11-20T16:13:28;19.20;;;8.93;;
29044;SDS011;16133;49.486;12.176;2022-11-20T16:16:19;19.88;;;9.57;;
29044;SDS011;16133;49.486;12.176;2022-11-20T16:18:57;38.17;;;14.50;;
29044;SDS011;16133;49.486;12.176;2022-11-20T16:21:22;47.65;;;18.60;;
29044;SDS011;16133;49.486;12.176;2022-11-20T16:24:00;59.30;;;21.33;;
29044;SDS011;16133;49.486;12.176;2022-11-20T16:26:27;57.80;;;20.92;;
29044;SDS011;16133;49.486;12.176;2022-11-20T16:28:53;49.63;;;19.67;;
29044;SDS011;16133;49.486;12.176;2022-11-20T16:31:19;35.78;;;16.15;;
29044;SDS011;16133;49.486;12.176;2022-11-20T16:33:49;33.38;;;15.15;;
29044;SDS011;16133;49.486;12.176;2022-11-20T16:36:19;34.05;;;15.38;;
29044;SDS011;16133;49.486;12.176;2022-11-20T16:38:45;30.83;;;15.13;;